Time;durP1;ratioP1;P1;durP2;ratioP2;P2;SDS_P1;SDS_P2;PMS_P1;PMS_P2;Temp;Humidity;BMP_temperature;BMP_pressure;BME280_temperature;BME280_humidity;BME280_pressure;Samples;Min_cycle;Max_cycle;Signal;HPM_P1;HPM_P2
2022/05/16 00:00:35;;;;;;;7.88;5.32;;;;;;;19.88;43.90;99277.06;5087623;28;20105;-73
2022/05/16 00:03:04;;;;;;;5.50;3.72;;;;;;;19.58;44.35;99239.59;5087557;28;20316;-73
2022/05/16 00:05:32;;;;;;;6.78;4.25;;;;;;;19.85;43.87;99274.66;5087508;28;20117;-72
2022/05/16 00:08:01;;;;;;;6.95;4.43;;;;;;;19.90;43.96;99268.84;5086923;28;20125;-73
2022/05/16 00:10:28;;;;;;;9.18;5.28;;;;;;;19.86;43.54;99269.13;5087171;28;20056;-73
2022/05/16 00:12:55;;;;;;;7.13;4.25;;;;;;;19.86;43.80;99279.03;5087293;28;20113;-73
2022/05/16 00:15:25;;;;;;;7.55;4.45;;;;;;;18.85;43.79;99123.72;5087137;28;20056;-73
2022/05/16 00:17:52;;;;;;;4.80;3.70;;;;;;;19.72;43.88;99272.25;5087406;28;20052;-73
2022/05/16 00:20:20;;;;;;;6.20;4.28;;;;;;;19.73;44.24;99267.72;5087266;28;20064;-73
2022/05/16 00:22:47;;;;;;;9.45;4.68;;;;;;;19.75;43.92;99274.66;5087230;28;20250;-73
2022/05/16 00:25:16;;;;;;;6.72;4.13;;;;;;;19.69;44.05;99282.44;5086895;28;20060;-73
2022/05/16 00:27:43;;;;;;;7.57;3.97;;;;;;;19.71;43.94;99275.06;5086839;28;20320;-73
2022/05/16 00:30:15;;;;;;;6.70;3.78;;;;;;;19.63;44.79;99278.50;5086538;28;20263;-73
2022/05/16 00:32:42;;;;;;;6.57;3.20;;;;;;;19.57;44.44;99294.34;5086989;28;20060;-73
2022/05/16 00:35:11;;;;;;;7.05;4.85;;;;;;;19.60;44.72;99277.94;5086747;28;20329;-73
2022/05/16 00:37:39;;;;;;;4.68;3.90;;;;;;;19.26;44.66;99224.59;5086624;28;20060;-73
2022/05/16 00:40:08;;;;;;;5.25;3.85;;;;;;;19.41;44.69;99268.91;5086909;28;20056;-73
2022/05/16 00:42:37;;;;;;;6.30;3.83;;;;;;;19.32;44.97;99268.88;5086804;28;20381;-73
2022/05/16 00:45:06;;;;;;;4.55;3.40;;;;;;;19.19;45.07;99264.63;5086744;28;20057;-73
2022/05/16 00:47:33;;;;;;;8.07;4.03;;;;;;;19.24;45.23;99272.25;5086715;28;20354;-73
2022/05/16 00:50:01;;;;;;;8.68;3.60;;;;;;;19.21;45.28;99273.41;5086431;28;20052;-73
2022/05/16 00:52:32;;;;;;;6.28;3.70;;;;;;;19.21;45.25;99269.84;5086243;28;20056;-73
2022/05/16 00:55:03;;;;;;;5.32;3.20;;;;;;;19.26;45.46;99266.75;5086287;28;20056;-73
2022/05/16 00:57:36;;;;;;;6.35;4.00;;;;;;;19.23;45.34;99265.19;5086238;28;20113;-73
2022/05/16 01:00:09;;;;;;;4.90;3.97;;;;;;;19.21;45.77;99267.19;5086514;28;20056;-74
2022/05/16 01:05:24;;;;;;;6.15;4.13;;;;;;;19.18;45.06;99276.38;5086369;28;20102;-73
2022/05/16 01:07:51;;;;;;;5.05;3.45;;;;;;;19.11;45.51;99272.53;5086307;28;20057;-73
2022/05/16 01:10:21;;;;;;;5.65;3.40;;;;;;;19.11;45.71;99282.44;5086040;28;20052;-72
2022/05/16 01:12:51;;;;;;;10.05;3.50;;;;;;;19.04;45.40;99284.84;5085833;28;20206;-73
2022/05/16 01:15:30;;;;;;;5.63;3.63;;;;;;;18.72;46.17;99239.44;5086246;28;20102;-73
2022/05/16 01:17:57;;;;;;;5.32;3.25;;;;;;;18.96;45.68;99283.84;5085914;28;20056;-73
2022/05/16 01:20:27;;;;;;;4.57;3.67;;;;;;;18.89;45.62;99279.03;5086086;28;20317;-72
2022/05/16 01:22:55;;;;;;;4.93;3.42;;;;;;;18.81;45.94;99270.81;5085805;28;20106;-73
2022/05/16 01:25:27;;;;;;;8.45;4.15;;;;;;;18.67;46.30;99276.59;5086015;28;20057;-73
2022/05/16 01:27:57;;;;;;;5.35;3.45;;;;;;;18.70;45.84;99279.00;5086236;28;20086;-73
2022/05/16 01:30:27;;;;;;;5.40;3.20;;;;;;;17.63;45.81;99103.44;5085655;28;20068;-71
2022/05/16 01:32:54;;;;;;;4.60;3.67;;;;;;;18.76;45.82;99272.22;5085847;28;20064;-71
2022/05/16 01:35:26;;;;;;;5.72;3.28;;;;;;;18.75;45.99;99282.09;5085702;28;20048;-72
2022/05/16 01:40:40;;;;;;;8.10;4.35;;;;;;;18.66;45.73;99279.41;5085810;28;20090;-73
2022/05/16 01:43:09;;;;;;;5.97;3.50;;;;;;;18.42;45.81;99236.78;5085463;28;20052;-73
2022/05/16 01:45:37;;;;;;;7.28;3.28;;;;;;;18.67;45.86;99276.59;5085491;28;20060;-75
2022/05/16 01:48:05;;;;;;;4.97;3.30;;;;;;;18.71;45.43;99285.22;5085431;28;20113;-73
2022/05/16 01:50:32;;;;;;;4.93;2.90;;;;;;;18.42;45.20;99234.97;5085637;28;20052;-74
2022/05/16 01:53:00;;;;;;;4.80;3.40;;;;;;;18.65;45.50;99280.38;5085311;28;20056;-74
2022/05/16 01:55:27;;;;;;;4.43;3.28;;;;;;;18.65;45.53;99286.59;5085635;28;20106;-73
2022/05/16 01:57:56;;;;;;;6.05;3.55;;;;;;;18.62;45.49;99284.19;5085673;28;20057;-73
2022/05/16 02:00:23;;;;;;;4.68;2.92;;;;;;;18.64;45.43;99276.00;5085601;28;20271;-73
2022/05/16 02:02:51;;;;;;;5.53;3.30;;;;;;;18.61;45.58;99281.66;5085569;28;20178;-73
2022/05/16 02:05:20;;;;;;;6.10;3.33;;;;;;;18.58;45.69;99274.72;5085195;28;20060;-74
2022/05/16 02:07:50;;;;;;;5.95;3.30;;;;;;;18.53;45.88;99282.34;5084448;28;20098;-73
2022/05/16 02:10:19;;;;;;;6.18;3.75;;;;;;;18.46;45.78;99283.84;5085363;28;20060;-73
2022/05/16 02:12:46;;;;;;;5.63;3.83;;;;;;;18.47;45.98;99294.44;5085418;28;20068;-73
2022/05/16 02:15:18;;;;;;;5.28;3.58;;;;;;;18.54;45.76;99289.41;5085496;28;20068;-73
2022/05/16 02:17:46;;;;;;;5.72;3.42;;;;;;;17.77;45.63;99193.38;5085463;28;20057;-73
2022/05/16 02:20:14;;;;;;;9.10;4.20;;;;;;;18.57;45.55;99292.66;5085473;28;20052;-74
2022/05/16 02:25:27;;;;;;;5.05;3.33;;;;;;;18.54;45.77;99284.03;5085348;28;20036;-73
2022/05/16 02:27:54;;;;;;;5.63;3.65;;;;;;;18.49;45.77;99286.25;5085297;28;20190;-73
2022/05/16 02:30:23;;;;;;;5.47;3.15;;;;;;;18.48;45.97;99284.53;5084907;28;20060;-73
2022/05/16 02:32:51;;;;;;;9.18;3.78;;;;;;;18.40;46.07;99287.91;5085236;28;20056;-73
2022/05/16 02:35:19;;;;;;;5.70;3.97;;;;;;;18.38;46.16;99295.25;5084910;28;20064;-73
2022/05/16 02:37:46;;;;;;;5.32;3.83;;;;;;;18.35;46.51;99289.31;5085227;28;20063;-73
2022/05/16 02:40:14;;;;;;;4.40;2.83;;;;;;;18.32;46.08;99289.56;5085233;28;20216;-74
2022/05/16 02:42:41;;;;;;;5.47;3.78;;;;;;;18.28;46.21;99287.16;5085167;28;20054;-73
2022/05/16 02:45:10;;;;;;;9.18;4.07;;;;;;;18.23;46.59;99292.09;5085176;28;20052;-73
2022/05/16 02:47:39;;;;;;;5.80;3.90;;;;;;;18.27;46.67;99287.28;5085112;28;20063;-73
2022/05/16 02:50:07;;;;;;;5.85;3.67;;;;;;;18.24;46.22;99287.56;5085169;28;20056;-73
2022/05/16 02:52:34;;;;;;;7.22;3.65;;;;;;;18.17;46.66;99302.50;5085013;28;20052;-73
2022/05/16 02:55:02;;;;;;;5.07;3.60;;;;;;;18.20;46.38;99291.50;5085096;28;20056;-73
2022/05/16 02:57:29;;;;;;;6.55;3.28;;;;;;;18.20;46.47;99289.66;5085067;28;20058;-73
2022/05/16 02:59:57;;;;;;;8.13;3.88;;;;;;;18.16;46.40;99287.38;5084732;28;20216;-73
2022/05/16 03:02:25;;;;;;;7.00;4.15;;;;;;;18.13;46.45;99283.13;5085034;28;20056;-73
2022/05/16 03:04:53;;;;;;;10.00;4.10;;;;;;;18.12;46.84;99292.16;5084972;28;20063;-74
2022/05/16 03:07:21;;;;;;;5.47;3.45;;;;;;;18.14;46.67;99295.56;5084976;28;20056;-73
2022/05/16 03:09:48;;;;;;;6.43;4.20;;;;;;;18.19;46.25;99295.16;5085070;28;20056;-73
2022/05/16 03:12:16;;;;;;;6.88;4.53;;;;;;;18.21;46.14;99295.88;5085053;28;20052;-73
2022/05/16 03:14:43;;;;;;;9.85;4.22;;;;;;;18.21;46.52;99302.09;5084578;28;20052;-73
2022/05/16 03:17:11;;;;;;;9.80;4.38;;;;;;;18.18;46.30;99302.38;5084916;28;20204;-73
2022/05/16 03:19:38;;;;;;;6.82;4.22;;;;;;;18.15;46.48;99294.59;5088183;28;20217;-73
2022/05/16 03:22:08;;;;;;;5.60;4.00;;;;;;;18.17;46.73;99297.13;5088339;28;20040;-73
2022/05/16 03:24:35;;;;;;;5.43;3.67;;;;;;;18.18;46.32;99297.00;5088289;28;20053;-73
2022/05/16 03:27:05;;;;;;;6.50;3.60;;;;;;;18.14;46.25;99306.28;5088304;28;20064;-73
2022/05/16 03:29:32;;;;;;;7.47;3.33;;;;;;;18.12;46.29;99304.72;5087722;28;20052;-73
2022/05/16 03:32:00;;;;;;;5.88;3.50;;;;;;;18.04;46.63;99296.50;5088239;28;20056;-73
2022/05/16 03:34:28;;;;;;;6.65;4.47;;;;;;;17.96;46.52;99299.84;5088094;28;20064;-74
2022/05/16 03:36:55;;;;;;;7.07;3.90;;;;;;;17.69;46.78;99252.16;5087836;28;20057;-73
2022/05/16 03:42:09;;;;;;;4.80;3.25;;;;;;;17.85;46.75;99292.72;5087993;28;20048;-73
2022/05/16 03:44:37;;;;;;;7.57;4.30;;;;;;;17.90;46.64;99297.69;5087978;28;20052;-74
2022/05/16 03:47:04;;;;;;;7.45;4.45;;;;;;;17.92;46.74;99306.47;5087750;28;20056;-73
2022/05/16 03:49:31;;;;;;;5.50;3.47;;;;;;;17.93;46.91;99297.44;5087870;28;20313;-74
2022/05/16 03:51:59;;;;;;;7.45;4.22;;;;;;;17.91;47.16;99307.44;5087862;28;20209;-73
2022/05/16 03:54:28;;;;;;;10.07;4.05;;;;;;;17.63;47.31;99258.88;5087734;28;20052;-73
2022/05/16 03:56:55;;;;;;;6.72;3.53;;;;;;;17.89;46.78;99310.25;5087772;28;20057;-74
2022/05/16 03:59:23;;;;;;;13.02;9.77;;;;;;;17.87;47.06;99306.84;5087707;28;20181;-73
2022/05/16 04:01:51;;;;;;;12.55;9.48;;;;;;;17.91;47.21;99310.97;5087768;28;20063;-73
2022/05/16 04:04:18;;;;;;;10.13;6.50;;;;;;;17.97;46.78;99298.88;5087590;28;20127;-73
2022/05/16 04:06:46;;;;;;;7.35;4.68;;;;;;;17.99;46.66;99301.41;5087301;28;20056;-73
2022/05/16 04:09:13;;;;;;;9.98;6.97;;;;;;;17.70;47.00;99258.34;5087572;28;20056;-73
2022/05/16 04:11:42;;;;;;;10.82;7.07;;;;;;;17.92;47.07;99310.00;5087519;28;20064;-73
2022/05/16 04:14:09;;;;;;;12.02;5.97;;;;;;;17.92;47.18;99303.78;5087004;28;20053;-73
2022/05/16 04:16:37;;;;;;;10.82;5.55;;;;;;;17.95;47.22;99303.50;5087399;28;20064;-73
2022/05/16 04:19:06;;;;;;;8.23;5.63;;;;;;;18.00;47.25;99303.97;5087245;28;20056;-73
2022/05/16 04:21:34;;;;;;;9.18;6.32;;;;;;;18.03;46.87;99308.22;5087242;28;20052;-73
2022/05/16 04:24:02;;;;;;;20.15;8.98;;;;;;;17.17;46.74;99184.22;5086917;28;20044;-73
2022/05/16 04:26:29;;;;;;;9.40;7.35;;;;;;;18.05;46.57;99315.13;5087074;28;20060;-73
2022/05/16 04:28:58;;;;;;;6.10;4.90;;;;;;;18.02;47.03;99317.25;5086488;28;20053;-73
2022/05/16 04:31:26;;;;;;;9.02;5.30;;;;;;;18.07;46.56;99317.69;5086280;28;20056;-73
2022/05/16 04:33:53;;;;;;;11.45;5.63;;;;;;;18.11;46.33;99324.50;5086718;28;20075;-73
2022/05/16 04:36:20;;;;;;;8.30;5.60;;;;;;;18.15;46.42;99310.69;5087029;28;20052;-73
2022/05/16 04:38:48;;;;;;;9.15;4.85;;;;;;;18.20;46.58;99321.00;5087131;28;20043;-73
2022/05/16 04:44:01;;;;;;;8.68;5.15;;;;;;;18.20;46.80;99321.00;5087021;28;20045;-73
2022/05/16 04:46:29;;;;;;;5.80;4.25;;;;;;;18.20;46.54;99324.53;5086786;28;20057;-73
2022/05/16 04:48:56;;;;;;;8.80;5.32;;;;;;;18.20;46.78;99329.06;5086602;28;20071;-74
2022/05/16 04:51:23;;;;;;;6.50;4.53;;;;;;;18.23;46.71;99331.47;5086660;28;20056;-73
2022/05/16 04:53:51;;;;;;;10.05;7.82;;;;;;;18.25;46.73;99333.03;5087158;28;20056;-73
2022/05/16 04:56:18;;;;;;;8.85;5.65;;;;;;;18.30;46.38;99337.16;5086566;28;20052;-73
2022/05/16 04:58:45;;;;;;;10.50;6.95;;;;;;;18.14;46.39;99317.03;5086205;28;20071;-73
2022/05/16 05:01:14;;;;;;;9.80;7.50;;;;;;;17.16;47.09;99169.13;5086509;28;20063;-73
2022/05/16 05:03:42;;;;;;;11.38;7.53;;;;;;;18.13;46.58;99339.47;5086441;28;20052;-73
2022/05/16 05:06:10;;;;;;;5.82;5.18;;;;;;;18.11;46.89;99346.78;5086361;28;20308;-74
2022/05/16 05:08:37;;;;;;;6.93;5.35;;;;;;;18.06;46.91;99337.44;5086310;28;20064;-73
2022/05/16 05:16:38;;;;;;;9.65;5.00;;;;;;;18.11;46.80;99349.47;5086386;28;20047;-73
2022/05/16 05:19:06;;;;;;;12.07;7.72;;;;;;;18.17;46.79;99351.63;5086214;28;20056;-73
2022/05/16 05:21:33;;;;;;;15.77;6.80;;;;;;;18.21;46.41;99345.00;5085943;28;20067;-73
2022/05/16 05:24:01;;;;;;;10.70;7.28;;;;;;;18.01;46.73;99313.72;5085829;28;20048;-73
2022/05/16 05:26:28;;;;;;;11.60;6.68;;;;;;;18.32;46.39;99349.44;5085849;28;20313;-73
2022/05/16 05:28:56;;;;;;;12.13;6.65;;;;;;;18.25;46.63;99342.91;5085624;28;20067;-74
2022/05/16 05:31:25;;;;;;;9.15;6.65;;;;;;;18.25;46.60;99345.59;5085633;28;20162;-73
2022/05/16 05:33:54;;;;;;;9.48;5.90;;;;;;;18.22;46.98;99346.72;5085514;28;20071;-73
2022/05/16 05:36:21;;;;;;;8.32;5.07;;;;;;;18.31;46.58;99342.38;5085787;28;20052;-74
2022/05/16 05:38:51;;;;;;;6.20;4.57;;;;;;;17.19;46.51;99143.91;5085690;28;20104;-73
2022/05/16 05:41:21;;;;;;;7.18;4.63;;;;;;;18.46;46.88;99348.25;5085409;28;20343;-74
2022/05/16 05:43:49;;;;;;;9.15;4.75;;;;;;;18.31;46.45;99339.69;5085419;28;20040;-73
2022/05/16 05:46:17;;;;;;;7.95;5.15;;;;;;;18.54;46.58;99354.66;5085522;28;20052;-73
2022/05/16 05:48:45;;;;;;;10.25;6.22;;;;;;;18.54;46.36;99349.28;5085685;28;20056;-73
2022/05/16 05:51:14;;;;;;;8.85;7.10;;;;;;;18.56;46.62;99346.47;5086344;28;20044;-74
2022/05/16 05:53:42;;;;;;;12.95;7.97;;;;;;;18.61;46.53;99354.13;5085509;28;20057;-73
2022/05/16 05:56:12;;;;;;;8.70;5.85;;;;;;;18.66;46.16;99352.72;5085397;28;20040;-74
2022/05/16 05:58:40;;;;;;;8.35;5.38;;;;;;;18.70;46.04;99348.78;5085626;28;20064;-74
2022/05/16 06:01:08;;;;;;;8.82;4.88;;;;;;;18.76;45.59;99342.88;5085183;28;20227;-74
2022/05/16 06:03:36;;;;;;;7.70;4.57;;;;;;;18.78;45.51;99345.41;5085531;28;20053;-73
2022/05/16 06:06:03;;;;;;;11.07;5.72;;;;;;;18.50;45.37;99288.78;5085074;28;20067;-74
2022/05/16 06:08:32;;;;;;;10.10;4.85;;;;;;;18.85;45.18;99338.50;5085624;28;20057;-73
2022/05/16 06:11:00;;;;;;;7.00;4.28;;;;;;;18.87;45.12;99340.06;5085024;28;20040;-74
2022/05/16 06:13:28;;;;;;;7.47;4.28;;;;;;;18.91;44.76;99330.75;5085169;28;20056;-74
2022/05/16 06:15:56;;;;;;;6.75;4.40;;;;;;;18.78;44.54;99308.69;5085073;28;20052;-74
2022/05/16 06:18:23;;;;;;;7.45;3.88;;;;;;;18.99;44.86;99346.19;5085302;28;20056;-74
2022/05/16 06:20:50;;;;;;;10.52;4.85;;;;;;;19.05;44.33;99342.94;5085368;28;20052;-73
2022/05/16 06:23:18;;;;;;;7.18;4.15;;;;;;;19.08;43.94;99347.19;5084738;28;20063;-73
2022/05/16 06:25:47;;;;;;;8.43;4.30;;;;;;;18.87;44.42;99299.78;5084757;28;20052;-73
2022/05/16 06:28:18;;;;;;;6.10;4.32;;;;;;;19.21;43.91;99345.94;5085245;28;20052;-74
2022/05/16 06:30:48;;;;;;;18.50;4.80;;;;;;;19.19;43.94;99355.97;5084891;28;20052;-73
2022/05/16 06:33:17;;;;;;;7.95;4.60;;;;;;;19.06;43.27;99317.78;5085138;28;20089;-73
2022/05/16 06:35:45;;;;;;;8.60;4.20;;;;;;;19.29;42.46;99345.22;5084980;28;20064;-73
2022/05/16 06:38:15;;;;;;;6.88;3.97;;;;;;;19.36;42.59;99350.91;5085160;28;20243;-73
2022/05/16 06:40:46;;;;;;;5.30;3.38;;;;;;;19.41;42.23;99354.91;5084854;28;20052;-73
2022/05/16 06:43:16;;;;;;;9.00;3.75;;;;;;;19.50;42.10;99355.88;5085266;28;20057;-73
2022/05/16 06:45:44;;;;;;;6.53;3.95;;;;;;;19.65;41.45;99353.63;5085104;28;20053;-73
2022/05/16 06:48:11;;;;;;;6.45;4.03;;;;;;;19.81;41.62;99353.94;5085054;28;20056;-74
2022/05/16 06:50:40;;;;;;;6.53;3.50;;;;;;;19.99;40.49;99349.50;5084608;28;20056;-73
2022/05/16 06:53:11;;;;;;;7.50;4.05;;;;;;;20.17;40.34;99355.84;5085978;28;20056;-73
2022/05/16 06:55:39;;;;;;;4.78;3.33;;;;;;;19.98;39.99;99272.50;5088744;28;20059;-74
2022/05/16 06:58:07;;;;;;;7.13;3.22;;;;;;;20.63;39.58;99351.47;5089226;28;20056;-73
2022/05/16 07:00:36;;;;;;;7.03;3.65;;;;;;;20.62;39.33;99314.75;5088539;28;20072;-73
2022/05/16 07:03:03;;;;;;;13.55;4.72;;;;;;;20.97;38.55;99351.72;5088261;28;20056;-74
2022/05/16 07:05:32;;;;;;;5.10;3.20;;;;;;;21.11;38.61;99345.00;5088510;28;20059;-74
2022/05/16 07:07:59;;;;;;;8.05;3.35;;;;;;;21.31;38.80;99340.31;5088413;28;20212;-73
2022/05/16 07:10:27;;;;;;;7.65;3.72;;;;;;;21.51;38.65;99336.47;5088590;28;20056;-73
2022/05/16 07:12:55;;;;;;;5.90;3.35;;;;;;;21.68;38.34;99334.75;5088205;28;20063;-74
2022/05/16 07:15:22;;;;;;;6.32;3.97;;;;;;;21.73;37.39;99341.38;5088322;28;20064;-74
2022/05/16 07:17:51;;;;;;;7.57;3.63;;;;;;;21.83;37.48;99337.78;5088436;28;20059;-73
2022/05/16 07:20:19;;;;;;;5.70;3.50;;;;;;;21.42;37.63;99270.84;5088260;28;20060;-74
2022/05/16 07:22:48;;;;;;;7.35;3.97;;;;;;;21.90;37.07;99292.97;5088011;28;20048;-73
2022/05/16 07:25:17;;;;;;;14.55;4.40;;;;;;;22.25;36.88;99335.19;5088186;28;20071;-73
2022/05/16 07:27:59;;;;;;;5.85;3.13;;;;;;;22.36;37.17;99330.38;5087664;28;20056;-74
2022/05/16 07:30:29;;;;;;;5.50;3.67;;;;;;;22.49;36.04;99329.13;5087384;28;20060;-74
2022/05/16 07:33:00;;;;;;;6.90;3.33;;;;;;;22.56;36.28;99331.06;5088068;28;20052;-73
2022/05/16 07:35:30;;;;;;;5.22;3.22;;;;;;;22.59;35.44;99335.28;5087913;28;20052;-73
2022/05/16 07:37:59;;;;;;;8.23;3.60;;;;;;;22.66;36.75;99337.19;5087840;28;20101;-73
2022/05/16 07:40:28;;;;;;;9.32;3.95;;;;;;;22.83;36.26;99342.66;5087753;28;20328;-73
2022/05/16 07:42:57;;;;;;;6.22;3.22;;;;;;;22.74;35.99;99295.84;5088005;28;20063;-73
2022/05/16 07:45:25;;;;;;;4.75;2.47;;;;;;;23.04;36.31;99335.78;5086649;28;20053;-73
2022/05/16 07:47:52;;;;;;;8.13;3.20;;;;;;;23.09;35.64;99338.00;5087492;28;20056;-73
2022/05/16 07:50:22;;;;;;;6.95;3.97;;;;;;;23.12;35.40;99334.97;5087799;28;20079;-72
2022/05/16 07:52:49;;;;;;;6.07;4.13;;;;;;;23.31;35.66;99334.72;5087561;28;20345;-73
2022/05/16 07:55:19;;;;;;;6.45;3.47;;;;;;;23.35;35.89;99337.91;5087816;28;20067;-72
2022/05/16 07:57:47;;;;;;;5.90;3.47;;;;;;;23.53;35.66;99326.97;5088022;28;20289;-72
2022/05/16 08:00:15;;;;;;;9.02;3.33;;;;;;;23.44;35.52;99284.69;5087467;28;20063;-72
2022/05/16 08:02:42;;;;;;;7.32;3.20;;;;;;;23.78;35.68;99319.69;5087571;28;20312;-72
2022/05/16 08:05:13;;;;;;;5.55;3.15;;;;;;;23.86;35.03;99323.25;5086430;28;20060;-72
2022/05/16 08:10:31;;;;;;;8.70;3.63;;;;;;;23.88;35.48;99291.44;5086601;28;20316;-72
2022/05/16 08:13:01;;;;;;;24.02;4.70;;;;;;;24.02;33.99;99314.28;5087211;28;20064;-72
2022/05/16 08:15:29;;;;;;;7.13;3.40;;;;;;;23.50;35.28;99240.75;5086966;28;20053;-72
2022/05/16 08:17:57;;;;;;;5.93;3.60;;;;;;;24.14;35.16;99321.03;5087183;28;20048;-73
2022/05/16 08:20:26;;;;;;;5.80;3.60;;;;;;;24.28;33.90;99327.59;5087251;28;20056;-72
2022/05/16 08:22:55;;;;;;;6.53;3.83;;;;;;;24.31;33.83;99329.97;5086872;28;20348;-72
2022/05/16 08:25:23;;;;;;;5.20;3.10;;;;;;;24.37;34.41;99331.97;5086778;28;20060;-72
2022/05/16 08:27:51;;;;;;;6.55;3.10;;;;;;;24.36;33.84;99348.41;5086832;28;20370;-72
2022/05/16 08:30:20;;;;;;;6.15;3.38;;;;;;;24.43;33.41;99330.44;5085568;28;20201;-72
2022/05/16 08:32:47;;;;;;;6.90;3.47;;;;;;;24.48;33.42;99328.91;5086770;28;20308;-72
2022/05/16 08:35:16;;;;;;;4.68;2.50;;;;;;;24.59;33.87;99325.81;5086767;28;20304;-72
2022/05/16 08:40:39;;;;;;;6.63;3.17;;;;;;;24.85;32.38;99322.00;5086644;28;20086;-72
2022/05/16 08:43:15;;;;;;;8.23;3.33;;;;;;;25.01;32.81;99326.53;5086367;28;20062;-72
2022/05/16 08:45:47;;;;;;;5.60;3.35;;;;;;;25.10;32.56;99328.19;5087092;28;20098;-73
2022/05/16 08:48:19;;;;;;;4.85;3.03;;;;;;;24.95;33.14;99295.53;5086372;28;20370;-72
2022/05/16 08:50:52;;;;;;;9.88;3.28;;;;;;;17.34;32.71;98030.34;5086399;28;20056;-73
2022/05/16 08:53:25;;;;;;;7.05;3.40;;;;;;;25.10;32.04;99331.75;5086497;28;20355;-73
2022/05/16 08:55:58;;;;;;;6.03;3.05;;;;;;;25.10;32.37;99330.91;5085961;28;20270;-72
2022/05/16 08:58:29;;;;;;;6.22;3.50;;;;;;;25.23;32.77;99320.31;5086068;28;20057;-73
2022/05/16 09:01:01;;;;;;;7.70;3.28;;;;;;;25.44;31.80;99330.53;5085984;28;20056;-73
2022/05/16 09:03:36;;;;;;;7.80;2.80;;;;;;;25.52;31.83;99330.47;5085946;28;20057;-73
2022/05/16 09:06:12;;;;;;;12.10;3.55;;;;;;;25.49;31.96;99341.69;5085897;28;20052;-73
2022/05/16 09:08:49;;;;;;;6.72;3.30;;;;;;;25.53;32.05;99334.88;5086310;28;20056;-73
2022/05/16 09:11:25;;;;;;;7.15;3.65;;;;;;;25.68;31.24;99322.22;5086339;28;20312;-73
2022/05/16 09:13:55;;;;;;;6.00;3.22;;;;;;;25.20;31.58;99213.03;5085815;28;20064;-73
2022/05/16 09:16:35;;;;;;;15.73;4.55;;;;;;;24.83;30.29;99146.03;5085746;28;20133;-73
2022/05/16 09:19:18;;;;;;;10.13;3.53;;;;;;;25.11;30.37;99164.47;5085984;28;20319;-73
2022/05/16 09:22:03;;;;;;;7.28;3.00;;;;;;;26.17;31.14;99303.63;5085765;28;20078;-73
2022/05/16 09:24:35;;;;;;;6.38;3.03;;;;;;;26.12;30.67;99273.47;5086028;28;20065;-73
2022/05/16 09:27:09;;;;;;;6.38;3.30;;;;;;;26.32;30.14;99313.66;5085892;28;20374;-72
2022/05/16 09:29:39;;;;;;;;;;;;;;;26.36;29.75;99302.25;5085940;28;20064;-72
2022/05/16 09:32:10;;;;;;;11.40;3.38;;;;;;;26.35;30.87;99302.41;5085545;28;19916;-72
2022/05/16 09:34:37;;;;;;;6.68;3.85;;;;;;;26.15;31.35;99264.94;5085641;28;20086;-73
2022/05/16 09:37:05;;;;;;;8.27;3.40;;;;;;;26.26;31.01;99269.06;5085889;28;20321;-73
2022/05/16 09:39:33;;;;;;;11.30;3.47;;;;;;;26.29;31.39;99257.00;5085870;28;20037;-73
2022/05/16 09:42:05;;;;;;;7.57;3.80;;;;;;;26.50;30.30;99292.41;5085702;28;20169;-73
2022/05/16 09:44:40;;;;;;;12.18;3.83;;;;;;;26.26;30.26;99309.81;5085966;28;20064;-72
2022/05/16 09:47:36;;;;;;;6.78;3.30;;;;;;;26.24;29.84;99309.16;5085938;28;20057;-73
2022/05/16 09:50:21;;;;;;;5.18;2.70;;;;;;;26.16;30.11;99306.53;5084162;28;20102;-74
2022/05/16 09:52:51;;;;;;;6.93;4.32;;;;;;;26.23;31.27;99285.75;5085595;28;20056;-74
2022/05/16 09:55:28;;;;;;;6.90;3.58;;;;;;;26.32;30.61;99264.75;5085557;28;20064;-74
2022/05/16 09:57:59;;;;;;;6.38;3.10;;;;;;;26.55;30.15;99301.66;5085928;28;20053;-74
2022/05/16 10:00:38;;;;;;;7.22;3.20;;;;;;;26.37;30.59;99300.38;5085625;28;20049;-74
2022/05/16 10:03:28;;;;;;;11.63;4.65;;;;;;;25.48;30.54;99226.06;5085437;28;20219;-74
2022/05/16 10:05:57;;;;;;;7.38;3.63;;;;;;;25.96;31.60;99265.47;5085834;28;20066;-74
2022/05/16 10:08:28;;;;;;;6.00;2.83;;;;;;;26.32;31.54;99291.94;5085505;28;20097;-74
2022/05/16 10:10:56;;;;;;;5.38;3.22;;;;;;;26.49;31.09;99285.28;5085435;28;20086;-74
2022/05/16 10:13:26;;;;;;;7.22;3.53;;;;;;;26.56;30.26;99261.75;5085154;28;20047;-74
2022/05/16 10:15:56;;;;;;;5.95;3.63;;;;;;;26.01;30.50;99173.47;5084671;28;20063;-74
2022/05/16 10:18:26;;;;;;;5.88;3.50;;;;;;;26.31;30.14;99198.72;5083817;28;20090;-74
2022/05/16 10:20:58;;;;;;;5.53;3.13;;;;;;;26.61;30.41;99253.91;5085165;28;20053;-74
2022/05/16 10:23:29;;;;;;;5.13;3.05;;;;;;;27.02;31.04;99284.09;5084882;28;20113;-72
2022/05/16 10:26:01;;;;;;;8.60;4.15;;;;;;;27.22;30.12;99280.75;5084942;28;20102;-72
2022/05/16 10:28:35;;;;;;;5.88;3.30;;;;;;;27.39;29.77;99274.03;5087280;28;20362;-73
2022/05/16 10:33:52;;;;;;;9.52;3.33;;;;;;;27.26;30.62;99282.06;5089646;28;20136;-73
2022/05/16 10:36:26;;;;;;;5.95;3.42;;;;;;;27.21;29.86;99300.81;5089145;28;20113;-72
2022/05/16 10:39:02;;;;;;;6.85;3.30;;;;;;;27.38;29.38;99265.03;5089512;28;20094;-72
2022/05/16 10:41:37;;;;;;;9.45;3.63;;;;;;;27.63;29.88;99262.78;5089083;28;20181;-72
2022/05/16 10:44:22;;;;;;;7.05;3.33;;;;;;;27.77;29.68;99258.28;5088880;28;20098;-72
2022/05/16 10:47:00;;;;;;;5.82;3.63;;;;;;;27.52;29.30;99221.63;5087816;28;20123;-72
2022/05/16 10:49:37;;;;;;;9.23;3.03;;;;;;;27.63;29.20;99253.78;5087846;28;20334;-72
2022/05/16 10:52:24;;;;;;;6.78;3.00;;;;;;;27.71;29.30;99246.31;5088808;28;20198;-72
2022/05/16 10:54:51;;;;;;;7.22;3.85;;;;;;;27.73;29.95;99252.41;5088660;28;20057;-72
2022/05/16 10:57:34;;;;;;;6.95;3.85;;;;;;;27.85;28.92;99250.00;5088241;28;20114;-71
2022/05/16 11:00:10;;;;;;;4.95;3.08;;;;;;;27.96;29.26;99254.06;5088649;28;20064;-72
2022/05/16 11:03:05;;;;;;;7.32;3.33;;;;;;;28.09;29.15;99249.53;5088680;28;20275;-71
2022/05/16 11:05:42;;;;;;;5.82;3.63;;;;;;;28.15;28.66;99249.78;5088527;28;20064;-72
2022/05/16 11:08:19;;;;;;;5.90;3.10;;;;;;;28.16;29.61;99243.31;5088081;28;20057;-71
2022/05/16 11:10:53;;;;;;;4.80;2.60;;;;;;;27.95;29.50;99208.81;5088022;28;20060;-72
2022/05/16 11:13:28;;;;;;;6.40;3.25;;;;;;;28.09;28.87;99243.25;5088318;28;20118;-71
2022/05/16 11:16:03;;;;;;;5.78;3.65;;;;;;;27.81;29.58;99205.13;5087947;28;20060;-72
2022/05/16 11:18:40;;;;;;;5.63;3.33;;;;;;;27.95;29.57;99239.59;5087826;28;20078;-71
2022/05/16 11:21:21;;;;;;;6.63;2.97;;;;;;;27.74;29.71;99239.63;5087966;28;20056;-72
2022/05/16 11:24:07;;;;;;;3.92;2.70;;;;;;;27.72;29.37;99233.53;5088036;28;20247;-72
2022/05/16 11:26:43;;;;;;;9.32;3.20;;;;;;;27.75;29.73;99225.81;5087775;28;20053;-72
2022/05/16 11:29:19;;;;;;;7.25;3.47;;;;;;;27.94;29.70;99221.59;5087549;28;20060;-72
2022/05/16 11:32:05;;;;;;;7.03;3.22;;;;;;;28.20;29.13;99225.50;5088021;28;20071;-72
2022/05/16 11:34:46;;;;;;;10.68;4.25;;;;;;;28.13;29.25;99214.56;5088173;28;20064;-73
2022/05/16 11:37:22;;;;;;;5.07;3.10;;;;;;;28.07;28.82;99209.94;5087960;28;20056;-73
2022/05/16 11:39:54;;;;;;;6.97;3.75;;;;;;;28.09;28.79;99211.41;5087657;28;20052;-72
2022/05/16 11:42:28;;;;;;;4.90;2.83;;;;;;;28.16;28.84;99208.72;5087825;28;20181;-72
2022/05/16 11:45:05;;;;;;;4.75;3.28;;;;;;;28.10;29.02;99204.06;5087988;28;20056;-73
2022/05/16 11:47:39;;;;;;;8.07;3.28;;;;;;;28.09;28.62;99202.41;5087777;28;20365;-73
2022/05/16 11:50:14;;;;;;;7.75;3.60;;;;;;;28.05;28.92;99195.66;5087774;28;20095;-73
2022/05/16 11:52:50;;;;;;;10.18;3.17;;;;;;;27.95;29.20;99201.47;5087530;28;20125;-73
2022/05/16 12:01:07;;;;;;;5.22;2.97;;;;;;;27.73;29.08;99187.06;5063574;28;20305;-73
2022/05/16 12:03:40;;;;;;;7.18;3.60;;;;;;;27.59;29.02;99149.84;5087467;28;20052;-73
2022/05/16 12:06:25;;;;;;;9.70;3.67;;;;;;;28.10;28.66;99187.72;5087157;28;20110;-73
2022/05/16 12:09:15;;;;;;;8.38;3.97;;;;;;;27.44;28.29;99079.22;5086896;28;20114;-73
2022/05/16 12:11:51;;;;;;;4.68;3.53;;;;;;;27.91;28.71;99178.41;5087204;28;20040;-73
2022/05/16 12:14:29;;;;;;;6.32;2.80;;;;;;;27.91;29.11;99163.94;5087066;28;20056;-73
2022/05/16 12:16:59;;;;;;;5.57;2.60;;;;;;;27.93;29.33;99170.88;5087083;28;20255;-73
2022/05/16 12:19:33;;;;;;;5.20;2.83;;;;;;;27.24;29.32;99061.91;5087220;28;20263;-73